Time;durP1;ratioP1;P1;durP2;ratioP2;P2;SDS_P1;SDS_P2;PMS_P1;PMS_P2;Temp;Humidity;BMP_temperature;BMP_pressure;BME280_temperature;BME280_humidity;BME280_pressure;Samples;Min_cycle;Max_cycle;Signal;HPM_P1;HPM_P2
2023/11/24 00:01:20;;;;;;;3.03;1.50;;;;;;;5.71;100.00;100000.00;5043226;28;20091;-76
2023/11/24 00:03:46;;;;;;;0.70;0.70;;;;;;;5.95;100.00;100027.22;5057881;28;20487;-74
2023/11/24 00:06:12;;;;;;;2.15;2.05;;;;;;;5.99;100.00;100020.31;5064161;28;20117;-75
2023/11/24 00:08:38;;;;;;;0.80;0.80;;;;;;;5.34;100.00;99909.25;5061164;28;20062;-75
2023/11/24 00:11:15;;;;;;;0.75;0.75;;;;;;;5.81;100.00;100002.72;5061843;28;20497;-75
2023/11/24 00:13:41;;;;;;;1.33;1.23;;;;;;;5.76;100.00;99962.72;5062635;28;20124;-76
2023/11/24 00:16:09;;;;;;;0.30;0.30;;;;;;;5.93;100.00;100005.47;5049917;28;20358;-76
2023/11/24 00:18:36;;;;;;;6.47;6.15;;;;;;;5.85;100.00;99984.56;5037855;28;20076;-75
2023/11/24 00:21:06;;;;;;;0.63;0.63;;;;;;;5.69;100.00;99954.84;5049255;28;20451;-74
2023/11/24 00:23:35;;;;;;;2.28;2.17;;;;;;;5.77;100.00;99972.28;5045008;28;20033;-75
2023/11/24 00:26:05;;;;;;;0.40;0.40;;;;;;;5.35;100.00;99879.81;5055196;28;20056;-74
2023/11/24 00:28:33;;;;;;;1.10;1.10;;;;;;;5.76;100.00;99967.91;5064385;28;20481;-74
2023/11/24 00:30:59;;;;;;;2.17;2.08;;;;;;;5.18;100.00;99872.66;5061114;28;20396;-74
2023/11/24 00:33:26;;;;;;;2.15;2.05;;;;;;;5.87;100.00;99966.31;5044546;28;20388;-75
2023/11/24 00:35:52;;;;;;;0.85;0.85;;;;;;;5.17;100.00;99850.09;5062442;28;20044;-75
2023/11/24 00:38:19;;;;;;;19.13;10.90;;;;;;;5.19;100.00;99845.78;5039449;28;20118;-75
2023/11/24 00:40:44;;;;;;;0.50;0.50;;;;;;;5.44;100.00;99903.34;5062406;28;20439;-74
2023/11/24 00:43:11;;;;;;;0.77;0.77;;;;;;;5.33;100.00;99924.00;5048655;28;20187;-74
2023/11/24 00:45:37;;;;;;;0.55;0.52;;;;;;;4.78;100.00;99835.75;5047811;28;20060;-75
2023/11/24 00:48:05;;;;;;;1.20;1.20;;;;;;;5.71;100.00;99960.03;5049423;28;20029;-76
2023/11/24 00:50:32;;;;;;;1.30;1.23;;;;;;;5.59;100.00;99919.13;5048362;28;20029;-74
2023/11/24 00:53:01;;;;;;;0.73;0.73;;;;;;;5.75;100.00;99930.59;5047605;28;20072;-76
2023/11/24 00:55:27;;;;;;;0.50;0.50;;;;;;;5.63;100.00;99912.25;5053325;28;20063;-75
2023/11/24 00:57:53;;;;;;;0.30;0.30;;;;;;;5.47;100.00;99912.03;5041297;28;20091;-75
2023/11/24 01:00:19;;;;;;;0.32;0.32;;;;;;;5.45;100.00;99923.28;5036582;28;20458;-75
2023/11/24 01:02:51;;;;;;;0.85;0.77;;;;;;;5.42;100.00;99902.44;5049573;28;20048;-75
2023/11/24 01:05:19;;;;;;;0.30;0.30;;;;;;;4.90;100.00;99818.56;5022732;28;20053;-76
2023/11/24 01:07:46;;;;;;;1.05;0.85;;;;;;;5.38;100.00;99900.66;5049887;28;20238;-76
2023/11/24 01:10:12;;;;;;;1.10;1.10;;;;;;;5.09;100.00;99830.94;5051027;28;20052;-75
2023/11/24 01:12:38;;;;;;;0.32;0.32;;;;;;;5.66;100.00;99923.56;5029391;28;20041;-75
2023/11/24 01:15:08;;;;;;;1.10;0.85;;;;;;;4.94;100.00;99803.03;5048182;28;20059;-75
2023/11/24 01:17:35;;;;;;;0.93;0.93;;;;;;;5.50;100.00;99921.63;5046945;28;20560;-74
2023/11/24 01:20:03;;;;;;;1.23;1.13;;;;;;;4.62;100.00;99766.22;5047463;28;20037;-76
2023/11/24 01:22:29;;;;;;;0.45;0.45;;;;;;;5.26;100.00;99886.63;5042391;28;20029;-76
2023/11/24 01:25:07;;;;;;;0.30;0.30;;;;;;;5.31;100.00;99852.88;5046267;28;20064;-75
2023/11/24 01:27:33;;;;;;;0.30;0.30;;;;;;;5.45;100.00;99879.06;5061865;28;20368;-75
2023/11/24 01:30:01;;;;;;;0.65;0.65;;;;;;;5.53;100.00;99898.25;5057271;28;20039;-75
2023/11/24 01:32:37;;;;;;;0.82;0.82;;;;;;;4.68;100.00;99753.28;5029195;28;20082;-75
2023/11/24 01:35:04;;;;;;;3.63;3.30;;;;;;;4.77;100.00;99776.78;5042451;28;20072;-74
2023/11/24 01:37:29;;;;;;;0.40;0.40;;;;;;;4.77;100.00;99756.00;5040828;28;20459;-74
2023/11/24 01:39:55;;;;;;;0.65;0.65;;;;;;;5.40;100.00;99852.13;5046680;28;20042;-76
2023/11/24 01:42:21;;;;;;;2.25;2.15;;;;;;;4.93;100.00;99767.47;5047707;28;20025;-76
2023/11/24 01:44:47;;;;;;;1.20;1.10;;;;;;;5.10;100.00;99821.41;5029924;28;20074;-76
2023/11/24 01:47:13;;;;;;;0.70;0.70;;;;;;;5.02;100.00;99790.13;5047808;28;20485;-76
2023/11/24 01:49:49;;;;;;;13.07;11.98;;;;;;;4.75;100.00;99768.13;5048966;28;20045;-76
2023/11/24 01:52:15;;;;;;;0.35;0.35;;;;;;;5.20;100.00;99852.75;5062992;28;20117;-76
2023/11/24 01:54:42;;;;;;;3.85;3.50;;;;;;;5.16;100.00;99808.50;5060996;28;20032;-75
2023/11/24 01:57:11;;;;;;;3.88;3.67;;;;;;;5.05;100.00;99814.41;5041888;28;20077;-75
2023/11/24 01:59:38;;;;;;;0.40;0.40;;;;;;;5.00;100.00;99816.09;5027086;28;20031;-75
2023/11/24 02:02:04;;;;;;;1.00;1.00;;;;;;;4.47;100.00;99685.47;5034009;28;20055;-74
2023/11/24 02:04:29;;;;;;;0.60;0.60;;;;;;;5.12;100.00;99810.16;5052792;28;20033;-75
2023/11/24 02:06:57;;;;;;;0.60;0.60;;;;;;;4.98;100.00;99776.19;5060666;28;20044;-75
2023/11/24 02:09:23;;;;;;;0.77;0.77;;;;;;;4.66;100.00;99690.06;5061873;28;20108;-75
2023/11/24 02:11:49;;;;;;;0.75;0.75;;;;;;;4.80;100.00;99710.97;5053506;28;20029;-76
2023/11/24 02:14:15;;;;;;;1.42;1.33;;;;;;;5.16;100.00;99766.88;5050213;28;20551;-75
2023/11/24 02:16:40;;;;;;;6.38;6.07;;;;;;;5.07;100.00;99754.66;5048320;28;20037;-75
2023/11/24 02:19:06;;;;;;;0.40;0.40;;;;;;;4.37;100.00;99645.53;5060222;28;20051;-75
2023/11/24 02:21:32;;;;;;;1.13;1.13;;;;;;;4.56;100.00;99672.59;5044441;28;20495;-75
2023/11/24 02:23:59;;;;;;;0.95;0.63;;;;;;;4.88;100.00;99750.94;5044548;28;20031;-76
2023/11/24 02:26:25;;;;;;;0.22;0.22;;;;;;;4.79;100.00;99698.84;5045333;28;20076;-75
2023/11/24 02:28:50;;;;;;;0.77;0.50;;;;;;;4.05;100.00;99619.13;5046580;28;20071;-75
2023/11/24 02:31:16;;;;;;;5.78;3.15;;;;;;;4.22;100.00;99609.84;5044139;28;20111;-75
2023/11/24 02:33:42;;;;;;;5.90;5.57;;;;;;;4.68;100.00;99703.91;5058855;28;20045;-75
2023/11/24 02:36:18;;;;;;;0.30;0.30;;;;;;;4.84;100.00;99715.38;5056163;28;20025;-74
2023/11/24 02:38:49;;;;;;;0.55;0.55;;;;;;;4.49;100.00;99666.44;5061317;28;20032;-76
2023/11/24 02:41:18;;;;;;;0.40;0.40;;;;;;;4.68;100.00;99674.47;5061232;28;20056;-75
2023/11/24 02:43:44;;;;;;;4.75;4.50;;;;;;;4.15;100.00;99576.88;5060307;28;20044;-74
2023/11/24 02:46:11;;;;;;;1.92;1.85;;;;;;;4.76;100.00;99688.44;5059963;28;20504;-74
2023/11/24 02:48:37;;;;;;;0.85;0.85;;;;;;;4.71;100.00;99688.38;5040961;28;20449;-74
2023/11/24 02:51:07;;;;;;;1.67;1.63;;;;;;;4.42;100.00;99669.81;5061459;28;20040;-75
2023/11/24 02:53:35;;;;;;;0.57;0.57;;;;;;;4.77;100.00;99685.84;5052389;28;20041;-73
2023/11/24 02:56:03;;;;;;;0.30;0.30;;;;;;;4.67;100.00;99663.22;5049689;28;20485;-74
2023/11/24 02:58:29;;;;;;;1.42;1.38;;;;;;;3.79;100.00;99599.78;5059120;28;20032;-74
2023/11/24 03:00:55;;;;;;;0.32;0.32;;;;;;;4.02;100.00;99592.28;5059936;28;20111;-76
2023/11/24 03:03:22;;;;;;;0.32;0.32;;;;;;;3.94;100.00;99573.16;5060274;28;20380;-74
2023/11/24 03:05:50;;;;;;;1.30;1.30;;;;;;;4.67;100.00;99685.72;5040705;28;20016;-72
2023/11/24 03:08:17;;;;;;;2.90;2.70;;;;;;;4.40;100.00;99655.94;5061688;28;20425;-74
2023/11/24 03:10:43;;;;;;;8.23;7.43;;;;;;;4.47;100.00;99681.13;5062183;28;20045;-73
2023/11/24 03:13:09;;;;;;;0.82;0.65;;;;;;;4.47;100.00;99669.88;5059419;28;20080;-73
2023/11/24 03:15:35;;;;;;;0.30;0.30;;;;;;;4.53;100.00;99664.78;5062663;28;20064;-74
2023/11/24 03:18:01;;;;;;;2.70;2.50;;;;;;;3.74;100.00;99554.72;5060067;28;20051;-74
2023/11/24 03:20:27;;;;;;;2.58;2.38;;;;;;;3.86;100.00;99542.75;5024118;28;20041;-73
2023/11/24 03:22:53;;;;;;;0.30;0.30;;;;;;;4.53;100.00;99639.66;5045122;28;20083;-73
2023/11/24 03:25:18;;;;;;;0.50;0.50;;;;;;;4.10;100.00;99607.13;5047554;28;20078;-73
2023/11/24 03:27:44;;;;;;;0.50;0.50;;;;;;;4.12;100.00;99615.75;5066453;28;20134;-74
2023/11/24 03:30:10;;;;;;;0.20;0.20;;;;;;;4.44;100.00;99648.22;5061811;28;20029;-74
2023/11/24 03:32:48;;;;;;;0.30;0.30;;;;;;;4.26;100.00;99614.25;5056196;28;20017;-74
2023/11/24 03:35:13;;;;;;;0.40;0.40;;;;;;;3.88;100.00;99564.41;5058751;28;20040;-75
2023/11/24 03:37:39;;;;;;;0.22;0.22;;;;;;;3.59;100.00;99498.31;5042191;28;20036;-74
2023/11/24 03:40:05;;;;;;;0.40;0.40;;;;;;;4.20;100.00;99629.72;5058926;28;20071;-73
2023/11/24 03:42:31;;;;;;;0.40;0.40;;;;;;;3.63;100.00;99521.69;5060935;28;20086;-74
2023/11/24 03:44:56;;;;;;;0.20;0.20;;;;;;;4.19;100.00;99615.88;5064162;28;20025;-74
2023/11/24 03:47:23;;;;;;;0.50;0.50;;;;;;;4.42;100.00;99625.66;5064072;28;20096;-73
2023/11/24 03:49:56;;;;;;;0.88;0.88;;;;;;;3.71;100.00;99548.63;5065492;28;20045;-75
2023/11/24 03:52:21;;;;;;;0.28;0.28;;;;;;;3.66;100.00;99512.25;5057555;28;20028;-75
2023/11/24 03:54:47;;;;;;;0.75;0.75;;;;;;;3.77;100.00;99517.59;5060472;28;20086;-74
2023/11/24 03:57:13;;;;;;;0.82;0.82;;;;;;;4.26;100.00;99601.25;5054962;28;20482;-74
2023/11/24 03:59:38;;;;;;;0.60;0.60;;;;;;;3.72;100.00;99490.69;5041953;28;20025;-74
2023/11/24 04:02:10;;;;;;;0.40;0.40;;;;;;;3.74;100.00;99518.38;5042904;28;20106;-73
2023/11/24 04:04:36;;;;;;;1.83;1.75;;;;;;;3.97;100.00;99567.13;5063872;28;20053;-73
2023/11/24 04:07:01;;;;;;;0.43;0.43;;;;;;;3.48;100.00;99486.91;5062329;28;20036;-73
2023/11/24 04:09:27;;;;;;;1.17;1.08;;;;;;;3.46;100.00;99478.25;5060348;28;20089;-74
2023/11/24 04:11:55;;;;;;;0.70;0.70;;;;;;;3.38;100.00;99479.88;5062117;28;20100;-75
2023/11/24 04:14:21;;;;;;;5.40;4.93;;;;;;;3.92;100.00;99572.25;5044488;28;20056;-74
2023/11/24 04:16:47;;;;;;;0.40;0.40;;;;;;;3.49;100.00;99482.59;5064667;28;20052;-73
2023/11/24 04:19:13;;;;;;;0.40;0.40;;;;;;;4.17;100.00;99602.00;5063662;28;20400;-74
2023/11/24 04:21:40;;;;;;;1.83;1.73;;;;;;;3.90;100.00;99579.16;5038016;28;20468;-74
2023/11/24 04:24:07;;;;;;;0.28;0.28;;;;;;;3.81;100.00;99553.94;5062912;28;20043;-73
2023/11/24 04:26:34;;;;;;;0.40;0.40;;;;;;;3.67;100.00;99549.44;5044980;28;20036;-74
2023/11/24 04:29:00;;;;;;;0.35;0.35;;;;;;;3.92;100.00;99572.25;5045289;28;20033;-73
2023/11/24 04:31:25;;;;;;;0.20;0.20;;;;;;;4.01;100.00;99581.91;5064478;28;20636;-74
2023/11/24 04:33:51;;;;;;;0.60;0.60;;;;;;;2.77;100.00;99393.50;5062506;28;20261;-72
2023/11/24 04:36:17;;;;;;;0.20;0.20;;;;;;;3.90;100.00;99586.94;5058918;28;20495;-75
2023/11/24 04:38:45;;;;;;;0.30;0.30;;;;;;;3.26;100.00;99501.31;5062547;28;20030;-75
2023/11/24 04:41:11;;;;;;;0.60;0.60;;;;;;;3.07;100.00;99471.66;5058430;28;20392;-74
2023/11/24 04:43:37;;;;;;;0.30;0.30;;;;;;;3.83;100.00;99592.03;5064058;28;20051;-74
2023/11/24 04:46:04;;;;;;;1.58;1.02;;;;;;;4.02;100.00;99584.50;5047071;28;20048;-74
2023/11/24 04:48:29;;;;;;;1.70;1.65;;;;;;;3.71;100.00;99580.63;5056878;28;21610;-73
2023/11/24 04:50:55;;;;;;;0.30;0.30;;;;;;;3.45;100.00;99505.03;5063292;28;20020;-74
2023/11/24 04:53:20;;;;;;;1.30;1.30;;;;;;;3.38;100.00;99516.19;5043149;28;20067;-75
2023/11/24 04:55:46;;;;;;;0.60;0.60;;;;;;;3.25;100.00;99494.38;5063042;28;20033;-73
2023/11/24 04:58:11;;;;;;;13.75;12.68;;;;;;;3.93;100.00;99601.66;5060501;28;20090;-75
2023/11/24 05:00:37;;;;;;;3.50;1.15;;;;;;;3.84;100.00;99576.50;5061705;28;20377;-74
2023/11/24 05:03:23;;;;;;;1.23;1.20;;;;;;;3.75;100.00;99573.78;5042836;28;20068;-75
2023/11/24 05:05:49;;;;;;;1.15;1.13;;;;;;;3.23;100.00;99495.22;5064027;28;20469;-73
2023/11/24 05:08:14;;;;;;;0.30;0.30;;;;;;;3.82;100.00;99565.22;5063260;28;20090;-73
2023/11/24 05:10:40;;;;;;;0.40;0.40;;;;;;;3.90;100.00;99562.72;5061343;28;20048;-72
2023/11/24 05:13:05;;;;;;;0.40;0.40;;;;;;;3.63;100.00;99584.84;5062673;28;20110;-73
2023/11/24 05:15:34;;;;;;;2.97;2.67;;;;;;;3.43;100.00;99552.56;5059406;28;20028;-72
2023/11/24 05:18:03;;;;;;;0.65;0.65;;;;;;;3.14;100.00;99476.09;5057109;28;20017;-74
2023/11/24 05:20:29;;;;;;;0.30;0.30;;;;;;;3.79;100.00;99575.53;5053395;28;20033;-72
2023/11/24 05:22:54;;;;;;;0.32;0.32;;;;;;;3.69;100.00;99569.34;5041477;28;20051;-74
2023/11/24 05:25:27;;;;;;;0.40;0.40;;;;;;;3.34;100.00;99472.91;5061906;28;20968;-74
2023/11/24 05:27:53;;;;;;;0.40;0.40;;;;;;;3.73;100.00;99567.69;5027325;28;20408;-75
2023/11/24 05:30:19;;;;;;;5.72;5.30;;;;;;;3.77;100.00;99579.84;5032394;28;20039;-74
2023/11/24 05:32:44;;;;;;;0.95;0.85;;;;;;;3.33;100.00;99466.84;5044116;28;20033;-74
2023/11/24 05:35:10;;;;;;;0.40;0.40;;;;;;;3.99;100.00;99552.44;5058494;28;20037;-75
2023/11/24 05:37:35;;;;;;;0.30;0.30;;;;;;;3.24;100.00;99447.72;5058013;28;20041;-75
2023/11/24 05:40:04;;;;;;;2.90;2.80;;;;;;;3.51;100.00;99518.09;5061626;28;20040;-75
2023/11/24 05:42:29;;;;;;;2.58;2.38;;;;;;;3.43;100.00;99443.66;5043855;28;21551;-72
2023/11/24 05:44:55;;;;;;;0.30;0.30;;;;;;;3.23;100.00;99427.81;5062143;28;20375;-75
2023/11/24 05:47:20;;;;;;;0.30;0.30;;;;;;;3.17;100.00;99423.44;5061909;28;20387;-76
2023/11/24 05:49:48;;;;;;;0.20;0.20;;;;;;;3.25;100.00;99415.75;5057848;28;20036;-75
2023/11/24 05:52:20;;;;;;;0.40;0.40;;;;;;;3.94;100.00;99518.66;5042384;28;20041;-75
2023/11/24 05:54:45;;;;;;;0.50;0.50;;;;;;;3.48;100.00;99409.13;5061967;28;20037;-74
2023/11/24 05:57:11;;;;;;;0.73;0.73;;;;;;;3.87;100.00;99457.16;5061591;28;20017;-74
2023/11/24 05:59:41;;;;;;;0.65;0.65;;;;;;;4.00;100.00;99520.44;5058985;28;20067;-76
2023/11/24 06:02:07;;;;;;;0.85;0.80;;;;;;;4.19;100.00;99522.41;5025953;28;20048;-74
2023/11/24 06:04:32;;;;;;;0.40;0.40;;;;;;;4.10;100.00;99490.28;5059096;28;20051;-74
2023/11/24 06:06:58;;;;;;;0.40;0.40;;;;;;;4.05;100.00;99474.66;5062870;28;20033;-75
2023/11/24 06:09:24;;;;;;;0.30;0.30;;;;;;;4.32;100.00;99518.22;5059367;28;20119;-73
2023/11/24 06:11:50;;;;;;;0.30;0.30;;;;;;;4.50;100.00;99509.75;5059980;28;20483;-75
2023/11/24 06:14:15;;;;;;;0.82;0.75;;;;;;;3.70;100.00;99393.81;5060731;28;20052;-74
2023/11/24 06:16:41;;;;;;;0.20;0.20;;;;;;;3.93;100.00;99435.59;5040878;28;20119;-73
2023/11/24 06:19:07;;;;;;;0.30;0.30;;;;;;;4.59;100.00;99511.56;5060265;28;20124;-74
2023/11/24 06:21:32;;;;;;;0.40;0.40;;;;;;;4.30;100.00;99444.63;5060398;28;20379;-75
2023/11/24 06:23:58;;;;;;;0.40;0.40;;;;;;;3.90;100.00;99383.66;5060815;28;20146;-74
2023/11/24 06:26:23;;;;;;;0.63;0.63;;;;;;;3.86;100.00;99387.94;5060466;28;20032;-75
2023/11/24 06:28:49;;;;;;;0.73;0.73;;;;;;;4.33;100.00;99420.41;5041395;28;20045;-75
2023/11/24 06:31:15;;;;;;;0.40;0.40;;;;;;;4.85;100.00;99488.41;5039364;28;20041;-76
2023/11/24 06:33:44;;;;;;;1.48;1.20;;;;;;;4.76;100.00;99459.75;5041945;28;20045;-76
2023/11/24 06:36:10;;;;;;;0.32;0.32;;;;;;;4.09;100.00;99362.22;5061762;28;20086;-75
2023/11/24 06:38:35;;;;;;;0.25;0.25;;;;;;;4.20;100.00;99349.34;5061725;28;20440;-74
2023/11/24 06:41:23;;;;;;;0.45;0.45;;;;;;;5.03;100.00;99449.56;5058236;28;20048;-73
2023/11/24 06:43:49;;;;;;;0.43;0.40;;;;;;;5.03;100.00;99449.56;5052066;28;20461;-73
2023/11/24 06:46:15;;;;;;;0.30;0.30;;;;;;;4.96;100.00;99439.09;5031780;28;20041;-74
2023/11/24 06:55:33;;;;;;;0.30;0.30;;;;;;;4.56;100.00;99303.69;5049560;28;20120;-73
2023/11/24 06:58:00;;;;;;;0.30;0.30;;;;;;;5.26;100.00;99400.25;5045457;28;20120;-74
2023/11/24 07:00:25;;;;;;;2.90;2.80;;;;;;;5.41;100.00;99433.31;5046239;28;20025;-73
2023/11/24 07:02:51;;;;;;;1.17;1.15;;;;;;;5.38;100.00;99406.41;5044205;28;20040;-74
2023/11/24 07:05:31;;;;;;;0.40;0.40;;;;;;;5.46;100.00;99402.09;5045164;28;20041;-74
2023/11/24 07:07:57;;;;;;;0.30;0.30;;;;;;;5.48;100.00;99397.78;5026840;28;20447;-73
2023/11/24 07:10:26;;;;;;;2.92;2.72;;;;;;;5.58;100.00;99417.75;5044737;28;20120;-73
2023/11/24 07:12:52;;;;;;;0.30;0.30;;;;;;;5.64;100.00;99412.59;5044097;28;20041;-74
2023/11/24 07:15:18;;;;;;;2.60;2.40;;;;;;;4.67;100.00;99239.69;5056154;28;20025;-73
2023/11/24 07:17:44;;;;;;;0.22;0.22;;;;;;;5.76;100.00;99398.75;5048001;28;20355;-73
2023/11/24 07:20:13;;;;;;;0.30;0.30;;;;;;;5.69;100.00;99395.25;5046257;28;20045;-73
2023/11/24 07:22:41;;;;;;;0.30;0.30;;;;;;;5.15;100.00;99276.25;5049223;28;20041;-74
2023/11/24 07:25:07;;;;;;;0.57;0.57;;;;;;;5.69;100.00;99358.81;5055959;28;20044;-73
2023/11/24 07:27:33;;;;;;;0.40;0.40;;;;;;;5.86;100.00;99379.69;5068150;28;20068;-73
2023/11/24 07:29:58;;;;;;;0.38;0.38;;;;;;;5.20;100.00;99231.22;5059695;28;20498;-73
2023/11/24 07:32:28;;;;;;;3.97;3.67;;;;;;;5.29;100.00;99259.84;5036697;28;20468;-73
2023/11/24 07:34:55;;;;;;;0.30;0.30;;;;;;;5.59;100.00;99289.38;5051194;28;20036;-77
2023/11/24 07:37:24;;;;;;;0.43;0.43;;;;;;;5.75;100.00;99292.88;5030963;28;20037;-76
2023/11/24 07:39:58;;;;;;;0.40;0.40;;;;;;;6.02;100.00;99333.75;5041432;28;20091;-77
2023/11/24 07:42:24;;;;;;;1.15;1.10;;;;;;;6.39;100.00;99365.03;5051834;28;20149;-73
2023/11/24 07:44:49;;;;;;;0.40;0.40;;;;;;;5.86;100.00;99270.34;5067488;28;20139;-74
2023/11/24 07:47:18;;;;;;;0.30;0.30;;;;;;;6.23;100.00;99312.06;5054510;28;20048;-74
2023/11/24 07:49:47;;;;;;;0.88;0.88;;;;;;;6.53;100.00;99367.59;5049160;28;20033;-74
2023/11/24 07:52:12;;;;;;;0.20;0.20;;;;;;;6.02;100.00;99259.97;5048651;28;20064;-74
2023/11/24 07:54:41;;;;;;;0.55;0.55;;;;;;;6.49;100.00;99321.59;5044572;28;20489;-74
2023/11/24 07:57:07;;;;;;;0.20;0.20;;;;;;;6.70;100.00;99355.44;5059246;28;20017;-74
2023/11/24 07:59:33;;;;;;;0.30;0.30;;;;;;;6.67;100.00;99318.97;5043453;28;20044;-73
2023/11/24 08:01:59;;;;;;;4.18;3.97;;;;;;;6.93;100.00;99351.91;5031379;28;20057;-74
2023/11/24 08:04:25;;;;;;;6.90;3.17;;;;;;;6.53;100.00;99282.50;5027004;28;20064;-73
2023/11/24 08:06:50;;;;;;;0.32;0.32;;;;;;;6.20;100.00;99227.81;5049222;28;20488;-73
2023/11/24 08:09:17;;;;;;;0.40;0.40;;;;;;;6.76;100.00;99315.44;5035231;28;20021;-73
2023/11/24 08:11:44;;;;;;;0.40;0.40;;;;;;;7.01;100.00;99341.47;5062014;28;20020;-73
2023/11/24 08:14:10;;;;;;;0.22;0.22;;;;;;;7.04;100.00;99324.06;5061892;28;20036;-73
2023/11/24 08:16:37;;;;;;;0.35;0.35;;;;;;;7.23;100.00;99340.50;5055661;28;20064;-73
2023/11/24 08:19:03;;;;;;;0.65;0.65;;;;;;;7.06;100.00;99329.28;5064007;28;20132;-73
2023/11/24 08:21:29;;;;;;;2.05;1.98;;;;;;;6.53;100.00;99222.56;5044470;28;20408;-73
2023/11/24 08:23:56;;;;;;;2.15;2.05;;;;;;;7.18;100.00;99335.31;5045335;28;20082;-72
2023/11/24 08:26:22;;;;;;;0.28;0.28;;;;;;;6.67;100.00;99227.72;5054724;28;20116;-74
2023/11/24 08:28:48;;;;;;;0.30;0.30;;;;;;;7.11;100.00;99304.03;5049057;28;20115;-74
2023/11/24 08:31:16;;;;;;;0.40;0.40;;;;;;;6.61;100.00;99216.44;5049138;28;20045;-74
2023/11/24 08:33:41;;;;;;;0.30;0.30;;;;;;;7.12;100.00;99269.28;5018851;28;20033;-74
2023/11/24 08:36:07;;;;;;;0.30;0.30;;;;;;;6.92;100.00;99212.81;5052941;28;20100;-74
2023/11/24 08:38:33;;;;;;;0.43;0.43;;;;;;;7.56;100.00;99308.19;5065628;28;20463;-72
2023/11/24 08:41:19;;;;;;;0.20;0.20;;;;;;;7.49;100.00;99271.66;5063023;28;20123;-75
2023/11/24 08:43:45;;;;;;;0.30;0.30;;;;;;;7.78;100.00;99301.06;5063325;28;20036;-74
2023/11/24 08:46:24;;;;;;;0.73;0.73;;;;;;;7.73;100.00;99252.38;5068665;28;20060;-74
2023/11/24 08:48:49;;;;;;;0.30;0.30;;;;;;;7.27;100.00;99157.00;5031515;28;20077;-72
2023/11/24 08:51:15;;;;;;;0.20;0.20;;;;;;;7.40;100.00;99165.59;5048428;28;20489;-73
2023/11/24 08:53:42;;;;;;;1.05;0.85;;;;;;;8.34;100.00;99287.59;5059296;28;20024;-74
2023/11/24 08:56:10;;;;;;;0.35;0.35;;;;;;;8.22;100.00;99254.59;5044445;28;20068;-75
2023/11/24 08:58:37;;;;;;;1.75;1.65;;;;;;;8.19;100.00;99220.63;5056299;28;20068;-73
2023/11/24 09:01:02;;;;;;;0.40;0.40;;;;;;;8.37;100.00;99248.34;5047833;28;20041;-73
2023/11/24 09:03:28;;;;;;;1.10;1.08;;;;;;;8.13;100.00;99148.41;5047684;28;20130;-75
2023/11/24 09:05:57;;;;;;;1.45;1.35;;;;;;;8.10;100.00;99137.09;5055510;28;20525;-73
2023/11/24 09:08:22;;;;;;;0.30;0.30;;;;;;;8.75;100.00;99202.63;5062892;28;20037;-73
2023/11/24 09:10:48;;;;;;;0.40;0.40;;;;;;;8.76;100.00;99201.75;5044062;28;20347;-73
2023/11/24 09:13:14;;;;;;;0.20;0.20;;;;;;;8.60;100.00;99195.84;5043003;28;20045;-74
2023/11/24 09:15:41;;;;;;;1.10;1.10;;;;;;;8.38;100.00;99135.06;5059801;28;20107;-73
2023/11/24 09:18:07;;;;;;;0.57;0.57;;;;;;;8.98;100.00;99207.56;5027363;28;20487;-75
2023/11/24 09:20:33;;;;;;;0.20;0.20;;;;;;;8.76;100.00;99184.31;5053140;28;20056;-72
2023/11/24 09:22:58;;;;;;;0.30;0.30;;;;;;;9.05;100.00;99204.84;5036329;28;20139;-73
2023/11/24 09:25:24;;;;;;;0.50;0.50;;;;;;;8.97;100.00;99200.63;5043749;28;20175;-75
2023/11/24 09:27:50;;;;;;;0.55;0.55;;;;;;;8.69;100.00;99138.22;5046677;28;20029;-73
2023/11/24 09:30:16;;;;;;;0.22;0.22;;;;;;;8.62;100.00;99136.56;5046964;28;20056;-74
2023/11/24 09:32:43;;;;;;;0.20;0.20;;;;;;;8.88;100.00;99178.91;5033039;28;20460;-73
2023/11/24 09:35:09;;;;;;;1.85;0.68;;;;;;;8.60;100.00;99113.03;5042263;28;20048;-73
2023/11/24 09:37:36;;;;;;;6.03;5.70;;;;;;;8.56;100.00;99095.66;5044471;28;20032;-73
2023/11/24 09:40:09;;;;;;;0.70;0.70;;;;;;;9.20;100.00;99174.13;5047293;28;20443;-75
2023/11/24 09:42:42;;;;;;;9.25;8.38;;;;;;;9.33;100.00;99183.53;5040226;28;20472;-75
2023/11/24 09:45:14;;;;;;;0.40;0.40;;;;;;;9.44;100.00;99176.38;5063850;28;20123;-73
2023/11/24 09:47:43;;;;;;;0.82;0.52;;;;;;;8.85;100.00;99117.94;5055712;28;20035;-73
2023/11/24 09:50:12;;;;;;;2.35;1.63;;;;;;;9.24;100.00;99176.66;5053408;28;20067;-73
2023/11/24 09:52:42;;;;;;;3.90;3.78;;;;;;;8.90;100.00;99157.09;5061270;28;20532;-73
2023/11/24 09:55:08;;;;;;;3.28;2.60;;;;;;;8.36;100.00;99059.28;5050026;28;20128;-75
2023/11/24 09:57:34;;;;;;;0.30;0.30;;;;;;;8.93;100.00;99134.38;5046433;28;20129;-74
2023/11/24 10:00:01;;;;;;;0.32;0.32;;;;;;;8.42;100.00;99046.16;5055724;28;20020;-74
2023/11/24 10:02:28;;;;;;;0.20;0.20;;;;;;;8.84;100.00;99075.22;5031996;28;20425;-73
2023/11/24 10:04:54;;;;;;;0.20;0.20;;;;;;;9.25;100.00;99154.00;5056725;28;20441;-74
2023/11/24 10:07:21;;;;;;;0.65;0.65;;;;;;;8.90;100.00;99042.88;5036802;28;20516;-73
2023/11/24 10:09:48;;;;;;;2.63;2.40;;;;;;;9.29;100.00;99139.97;5044772;28;20063;-73
2023/11/24 10:12:18;;;;;;;2.05;1.95;;;;;;;9.19;100.00;99125.28;5043698;28;20094;-73
2023/11/24 10:15:03;;;;;;;0.25;0.25;;;;;;;9.45;100.00;99111.78;5027448;28;20357;-74
2023/11/24 10:17:35;;;;;;;0.20;0.20;;;;;;;9.40;100.00;99117.09;5042109;28;20036;-75
2023/11/24 10:20:10;;;;;;;0.30;0.30;;;;;;;9.67;100.00;99092.22;5059216;28;20086;-73
2023/11/24 10:22:40;;;;;;;0.20;0.20;;;;;;;9.73;100.00;99094.69;5062070;28;20465;-73
2023/11/24 10:25:12;;;;;;;0.30;0.30;;;;;;;9.70;100.00;99072.97;5058620;28;20049;-73
2023/11/24 10:27:40;;;;;;;0.93;0.93;;;;;;;9.66;100.00;99098.31;5053802;28;20041;-73
2023/11/24 10:30:06;;;;;;;3.45;3.15;;;;;;;9.52;100.00;99090.69;5034021;28;20020;-73
2023/11/24 10:32:50;;;;;;;0.40;0.40;;;;;;;9.46;100.00;99085.59;5052524;28;20036;-73
2023/11/24 10:35:16;;;;;;;0.20;0.20;;;;;;;9.37;100.00;99048.25;5059590;28;20040;-73
2023/11/24 10:37:42;;;;;;;2.47;0.63;;;;;;;9.18;100.00;99032.84;5025409;28;20385;-73
2023/11/24 10:40:11;;;;;;;2.80;2.45;;;;;;;9.19;100.00;99028.47;5046611;28;20102;-73
2023/11/24 10:42:40;;;;;;;3.05;2.38;;;;;;;9.51;100.00;99093.38;5045461;28;20086;-73
2023/11/24 10:45:11;;;;;;;0.20;0.20;;;;;;;9.41;100.00;99090.03;5033428;28;20028;-73
2023/11/24 10:48:09;;;;;;;0.43;0.40;;;;;;;9.31;100.00;99041.34;5035746;28;20041;-72
2023/11/24 10:50:41;;;;;;;3.92;3.70;;;;;;;9.58;100.00;99091.50;5044898;28;20064;-74
2023/11/24 10:53:09;;;;;;;5.72;3.85;;;;;;;9.71;100.00;99096.47;5049375;28;20036;-73
2023/11/24 10:55:38;;;;;;;9.00;4.53;;;;;;;9.54;100.00;99067.13;5048190;28;20049;-72
2023/11/24 10:58:05;;;;;;;0.30;0.30;;;;;;;9.76;100.00;99054.50;5050303;28;20045;-74
2023/11/24 11:00:31;;;;;;;0.75;0.75;;;;;;;9.38;100.00;98947.84;5031211;28;20368;-75
2023/11/24 11:02:57;;;;;;;0.47;0.40;;;;;;;9.41;100.00;98959.16;5063042;28;20063;-74
2023/11/24 11:05:49;;;;;;;0.20;0.20;;;;;;;9.89;100.00;99037.66;5052261;28;20048;-73
2023/11/24 11:08:34;;;;;;;1.48;1.40;;;;;;;10.00;100.00;99021.72;5050345;28;20167;-73
2023/11/24 11:11:11;;;;;;;3.20;2.90;;;;;;;10.27;100.00;99049.13;5045198;28;20041;-72
2023/11/24 11:13:40;;;;;;;1.65;1.33;;;;;;;10.22;100.00;99016.91;5062586;28;20448;-73
2023/11/24 11:16:08;;;;;;;0.50;0.50;;;;;;;9.72;100.00;98917.50;5051065;28;20408;-72
2023/11/24 11:18:35;;;;;;;4.57;2.05;;;;;;;10.46;100.00;99035.66;5046376;28;20485;-73
2023/11/24 11:21:15;;;;;;;2.38;2.17;;;;;;;10.34;100.00;99034.16;5059260;28;21035;-72
2023/11/24 11:23:41;;;;;;;4.90;4.18;;;;;;;10.07;100.00;98994.50;5046815;28;20613;-73
2023/11/24 11:26:09;;;;;;;3.70;3.33;;;;;;;9.76;100.00;98931.38;5048680;28;20049;-74
2023/11/24 11:28:46;;;;;;;0.47;0.43;;;;;;;9.57;100.00;98904.69;5056900;28;20484;-73
2023/11/24 11:31:24;;;;;;;5.25;2.42;;;;;;;10.22;100.00;99021.28;5044515;28;20040;-73
2023/11/24 11:33:50;;;;;;;2.40;2.20;;;;;;;9.66;100.00;98928.09;5043204;28;20031;-73
2023/11/24 11:36:19;;;;;;;0.82;0.82;;;;;;;10.19;100.00;99027.47;5040553;28;20021;-73
2023/11/24 11:38:50;;;;;;;2.38;1.83;;;;;;;10.27;100.00;99020.28;5053267;28;20036;-74
2023/11/24 11:41:45;;;;;;;3.42;2.10;;;;;;;10.30;100.00;99027.25;5034794;28;20543;-75